createdAt,value
2023-05-11T00:05:51.193Z,15.30
2023-05-11T00:15:57.897Z,17.00
2023-05-11T00:26:04.552Z,19.90
2023-05-11T00:36:11.066Z,15.80
2023-05-11T00:46:17.583Z,17.30
2023-05-11T00:56:24.545Z,15.20
2023-05-11T01:06:53.314Z,16.30
2023-05-11T01:17:05.368Z,14.10
2023-05-11T01:27:44.128Z,16.10
2023-05-11T01:37:53.142Z,20.10
2023-05-11T01:48:04.555Z,17.40
2023-05-11T01:58:12.146Z,18.50
2023-05-11T02:08:18.822Z,19.90
2023-05-11T02:18:25.735Z,20.40
2023-05-11T02:28:32.927Z,17.40
2023-05-11T02:38:40.859Z,18.50
2023-05-11T02:48:50.831Z,18.80
2023-05-11T02:58:57.531Z,18.90
2023-05-11T03:09:04.063Z,18.20
2023-05-11T03:19:11.145Z,19.60
2023-05-11T03:29:18.612Z,16.30
2023-05-11T03:39:25.422Z,16.60
2023-05-11T03:49:32.135Z,19.10
2023-05-11T03:59:40.963Z,16.70
2023-05-11T04:09:47.540Z,18.30
2023-05-11T04:19:53.999Z,19.30
2023-05-11T04:30:00.489Z,18.10
2023-05-11T04:40:05.886Z,20.25
2023-05-11T04:50:12.368Z,22.90
2023-05-11T05:00:19.477Z,20.40
2023-05-11T05:10:26.819Z,20.30
2023-05-11T05:20:33.303Z,21.20
2023-05-11T05:30:39.843Z,20.90
2023-05-11T05:40:46.391Z,18.00
2023-05-11T05:50:52.973Z,18.70
2023-05-11T06:00:59.602Z,18.70
2023-05-11T06:11:06.107Z,21.40
2023-05-11T06:21:12.641Z,18.90
2023-05-11T06:31:20.140Z,18.30
2023-05-11T06:41:27.387Z,15.80
2023-05-11T06:51:33.872Z,13.40
2023-05-11T07:01:40.724Z,13.70
2023-05-11T07:11:47.849Z,16.90
2023-05-11T07:21:54.402Z,13.70
2023-05-11T07:32:00.969Z,15.30
2023-05-11T07:42:07.543Z,13.00
2023-05-11T07:52:14.019Z,9.20
2023-05-11T08:02:20.613Z,15.70
2023-05-11T08:12:27.131Z,9.10
2023-05-11T08:22:33.926Z,10.60
2023-05-11T08:32:50.505Z,8.60
2023-05-11T08:43:06.879Z,7.60
2023-05-11T08:53:14.010Z,9.60
2023-05-11T09:03:21.277Z,10.30
2023-05-11T09:13:28.324Z,9.10
2023-05-11T09:23:34.869Z,9.10
2023-05-11T09:33:41.364Z,9.30
2023-05-11T09:43:51.553Z,7.50
2023-05-11T09:53:58.764Z,13.40
2023-05-11T10:04:22.052Z,7.30
2023-05-11T10:14:30.698Z,13.40
2023-05-11T10:24:37.305Z,8.70
2023-05-11T10:34:44.793Z,10.80
2023-05-11T10:45:06.516Z,8.20
2023-05-11T10:55:30.551Z,7.80
2023-05-11T11:05:39.444Z,7.20
2023-05-11T11:15:55.365Z,8.30
2023-05-11T11:26:02.226Z,8.90
2023-05-11T11:36:08.841Z,9.40
2023-05-11T11:46:28.372Z,7.60
2023-05-11T11:56:34.952Z,6.40
2023-05-11T12:06:42.462Z,11.10
2023-05-11T12:17:05.413Z,11.80
2023-05-11T12:27:12.000Z,11.30
2023-05-11T12:37:18.699Z,8.50
2023-05-11T12:47:25.342Z,13.90
2023-05-11T12:57:35.200Z,7.60
2023-05-11T13:07:41.889Z,11.70
2023-05-11T13:17:48.760Z,8.00
2023-05-11T13:27:57.210Z,8.30
2023-05-11T13:38:03.744Z,9.40
2023-05-11T13:48:10.291Z,8.40
2023-05-11T13:58:16.930Z,8.30
2023-05-11T14:08:23.626Z,10.40
2023-05-11T14:18:30.399Z,7.80
2023-05-11T14:28:37.073Z,7.10
2023-05-11T14:38:44.180Z,5.40
2023-05-11T14:48:50.651Z,9.60
2023-05-11T14:58:57.544Z,7.30
2023-05-11T15:09:04.084Z,5.20
2023-05-11T15:19:10.830Z,6.20
2023-05-11T15:29:18.102Z,6.60
2023-05-11T15:39:24.604Z,9.90
2023-05-11T15:49:31.897Z,9.40
2023-05-11T15:59:39.376Z,8.20
2023-05-11T16:09:46.074Z,11.60
2023-05-11T16:19:52.645Z,6.30
2023-05-11T16:30:01.045Z,5.10
2023-05-11T16:40:10.878Z,12.10
2023-05-11T16:50:19.236Z,6.60
2023-05-11T17:00:26.432Z,8.50
2023-05-11T17:10:33.125Z,7.90
2023-05-11T17:20:39.656Z,10.30
2023-05-11T17:30:49.139Z,9.10
2023-05-11T17:40:55.966Z,11.90
2023-05-11T17:51:02.645Z,9.00
2023-05-11T18:01:10.387Z,8.60
2023-05-11T18:11:16.924Z,9.90
2023-05-11T18:21:23.419Z,10.60
2023-05-11T18:31:30.902Z,11.90
2023-05-11T18:41:37.495Z,8.40
2023-05-11T18:51:44.093Z,12.70
2023-05-11T19:01:50.927Z,13.10
2023-05-11T19:11:57.538Z,9.70
2023-05-11T19:22:04.032Z,13.80
2023-05-11T19:41:30.492Z,14.50
2023-05-11T19:51:35.945Z,14.60
2023-05-11T20:01:42.750Z,15.10
2023-05-11T20:11:49.318Z,17.00
2023-05-11T20:21:55.849Z,16.20
2023-05-11T20:32:02.361Z,18.30
2023-05-11T20:42:18.536Z,15.90
2023-05-11T20:52:26.996Z,13.10
2023-05-11T21:02:33.552Z,16.30
2023-05-11T21:12:40.397Z,14.30
2023-05-11T21:22:46.962Z,17.70
2023-05-11T21:32:53.881Z,16.00
2023-05-11T21:43:00.499Z,15.70
2023-05-11T21:53:07.043Z,15.20
2023-05-11T22:03:14.023Z,17.10
2023-05-11T22:13:20.608Z,17.30
2023-05-11T22:23:27.339Z,13.90
2023-05-11T22:33:33.827Z,14.60
2023-05-11T22:43:40.357Z,15.70
2023-05-11T22:53:47.468Z,13.50
2023-05-11T23:03:54.042Z,14.10
2023-05-11T23:14:00.904Z,14.40
2023-05-11T23:24:08.320Z,13.10
2023-05-11T23:34:13.908Z,14.70
2023-05-11T23:44:20.771Z,14.50
2023-05-11T23:54:27.206Z,13.80
